Terminal Aerodrome Forecast
Issued by NWS

Home | Current Version | Previous Version | Text Only | Print | Product List | Glossary On
Versions: 1 2 3 4 5 6 7 8 9 10 11 12 13 14 15 16 17 18
000
FTUS44 KCRP 221120
TAFLRD
TAF
KLRD 221120Z 2212/2312 01007KT P6SM VCSH BKN015 OVC100
      TEMPO 2217/2221 3SM -SHRA OVC012
     FM222100 02004KT P6SM VCSH OVC050
     FM230400 10006KT P6SM OVC035
      AMD NOT SKED=

USA.gov is the U.S. government's official web portal to all federal, state and local government web resources and services.